sensor_id;sensor_type;location;lat;lon;timestamp;P1;durP1;ratioP1;P2;durP2;ratioP2
54241;SDS011;40156;51.080;17.082;2022-08-01T00:02:16;4.97;;;3.40;;
54241;SDS011;40156;51.080;17.082;2022-08-01T00:04:43;5.05;;;3.38;;
54241;SDS011;40156;51.080;17.082;2022-08-01T00:07:10;3.70;;;3.40;;
54241;SDS011;40156;51.080;17.082;2022-08-01T00:09:38;7.60;;;3.08;;
54241;SDS011;40156;51.080;17.082;2022-08-01T00:12:07;5.20;;;3.25;;
54241;SDS011;40156;51.080;17.082;2022-08-01T00:14:36;5.53;;;3.30;;
54241;SDS011;40156;51.080;17.082;2022-08-01T00:20:51;6.28;;;3.97;;
54241;SDS011;40156;51.080;17.082;2022-08-01T00:23:24;5.97;;;3.67;;
54241;SDS011;40156;51.080;17.082;2022-08-01T00:25:52;5.50;;;3.70;;
54241;SDS011;40156;51.080;17.082;2022-08-01T00:28:20;4.70;;;3.90;;
54241;SDS011;40156;51.080;17.082;2022-08-01T00:30:51;5.55;;;3.90;;
54241;SDS011;40156;51.080;17.082;2022-08-01T00:33:19;4.53;;;3.33;;
54241;SDS011;40156;51.080;17.082;2022-08-01T00:39:10;6.57;;;3.72;;
54241;SDS011;40156;51.080;17.082;2022-08-01T00:41:50;4.55;;;3.60;;
54241;SDS011;40156;51.080;17.082;2022-08-01T00:44:26;3.90;;;3.47;;
54241;SDS011;40156;51.080;17.082;2022-08-01T00:46:54;4.35;;;3.60;;
54241;SDS011;40156;51.080;17.082;2022-08-01T00:49:21;5.55;;;4.03;;
54241;SDS011;40156;51.080;17.082;2022-08-01T00:51:49;4.53;;;3.80;;
54241;SDS011;40156;51.080;17.082;2022-08-01T00:54:16;4.38;;;3.90;;
54241;SDS011;40156;51.080;17.082;2022-08-01T00:56:44;4.10;;;3.65;;
54241;SDS011;40156;51.080;17.082;2022-08-01T00:59:11;10.65;;;3.90;;
54241;SDS011;40156;51.080;17.082;2022-08-01T01:04:28;7.30;;;4.03;;
54241;SDS011;40156;51.080;17.082;2022-08-01T01:10:40;6.50;;;4.05;;
54241;SDS011;40156;51.080;17.082;2022-08-01T01:13:16;4.53;;;3.90;;
54241;SDS011;40156;51.080;17.082;2022-08-01T01:35:02;5.35;;;4.10;;
54241;SDS011;40156;51.080;17.082;2022-08-01T01:37:32;6.75;;;4.93;;
54241;SDS011;40156;51.080;17.082;2022-08-01T01:40:01;5.57;;;4.45;;
54241;SDS011;40156;51.080;17.082;2022-08-01T01:42:29;5.65;;;4.30;;
54241;SDS011;40156;51.080;17.082;2022-08-01T01:44:57;7.13;;;4.40;;
54241;SDS011;40156;51.080;17.082;2022-08-01T01:47:25;6.18;;;4.43;;
54241;SDS011;40156;51.080;17.082;2022-08-01T01:49:54;9.13;;;4.60;;
54241;SDS011;40156;51.080;17.082;2022-08-01T01:52:39;7.53;;;5.35;;
54241;SDS011;40156;51.080;17.082;2022-08-01T01:55:07;6.13;;;4.53;;
54241;SDS011;40156;51.080;17.082;2022-08-01T01:57:52;6.63;;;4.85;;
54241;SDS011;40156;51.080;17.082;2022-08-01T02:00:20;6.43;;;4.70;;
54241;SDS011;40156;51.080;17.082;2022-08-01T02:02:57;8.00;;;4.80;;
54241;SDS011;40156;51.080;17.082;2022-08-01T02:05:25;6.63;;;4.47;;
54241;SDS011;40156;51.080;17.082;2022-08-01T02:07:54;9.00;;;4.60;;
54241;SDS011;40156;51.080;17.082;2022-08-01T02:10:25;7.80;;;4.63;;
54241;SDS011;40156;51.080;17.082;2022-08-01T02:12:55;6.45;;;4.15;;
54241;SDS011;40156;51.080;17.082;2022-08-01T02:15:24;5.28;;;3.72;;
54241;SDS011;40156;51.080;17.082;2022-08-01T02:17:52;6.22;;;4.60;;
54241;SDS011;40156;51.080;17.082;2022-08-01T02:20:20;8.43;;;4.30;;
54241;SDS011;40156;51.080;17.082;2022-08-01T02:22:49;6.57;;;4.57;;
54241;SDS011;40156;51.080;17.082;2022-08-01T02:25:28;6.50;;;4.78;;
54241;SDS011;40156;51.080;17.082;2022-08-01T02:28:03;6.32;;;4.60;;
54241;SDS011;40156;51.080;17.082;2022-08-01T02:30:33;6.45;;;4.40;;
54241;SDS011;40156;51.080;17.082;2022-08-01T02:33:17;5.53;;;4.07;;
54241;SDS011;40156;51.080;17.082;2022-08-01T02:35:46;6.38;;;4.35;;
54241;SDS011;40156;51.080;17.082;2022-08-01T02:38:35;9.07;;;4.45;;
54241;SDS011;40156;51.080;17.082;2022-08-01T02:41:11;5.85;;;4.82;;
54241;SDS011;40156;51.080;17.082;2022-08-01T02:43:43;5.25;;;4.30;;
54241;SDS011;40156;51.080;17.082;2022-08-01T02:46:29;5.72;;;4.20;;
54241;SDS011;40156;51.080;17.082;2022-08-01T02:48:58;5.85;;;4.30;;
54241;SDS011;40156;51.080;17.082;2022-08-01T02:51:28;4.82;;;4.00;;
54241;SDS011;40156;51.080;17.082;2022-08-01T02:53:56;6.32;;;4.80;;
54241;SDS011;40156;51.080;17.082;2022-08-01T02:56:26;5.65;;;4.20;;
54241;SDS011;40156;51.080;17.082;2022-08-01T02:58:54;4.80;;;4.25;;
54241;SDS011;40156;51.080;17.082;2022-08-01T03:01:22;7.32;;;4.28;;
54241;SDS011;40156;51.080;17.082;2022-08-01T03:03:53;8.98;;;4.53;;
54241;SDS011;40156;51.080;17.082;2022-08-01T03:09:11;7.32;;;4.40;;
54241;SDS011;40156;51.080;17.082;2022-08-01T03:14:42;6.90;;;4.90;;
54241;SDS011;40156;51.080;17.082;2022-08-01T03:17:13;6.20;;;5.25;;
54241;SDS011;40156;51.080;17.082;2022-08-01T03:19:42;9.02;;;5.72;;
54241;SDS011;40156;51.080;17.082;2022-08-01T03:22:11;7.65;;;5.32;;
54241;SDS011;40156;51.080;17.082;2022-08-01T03:24:39;5.50;;;4.78;;
54241;SDS011;40156;51.080;17.082;2022-08-01T03:27:08;5.82;;;4.95;;
54241;SDS011;40156;51.080;17.082;2022-08-01T03:29:37;5.55;;;4.47;;
54241;SDS011;40156;51.080;17.082;2022-08-01T03:32:13;7.22;;;4.40;;
54241;SDS011;40156;51.080;17.082;2022-08-01T03:34:42;5.15;;;4.30;;
54241;SDS011;40156;51.080;17.082;2022-08-01T03:37:23;5.00;;;4.30;;
54241;SDS011;40156;51.080;17.082;2022-08-01T03:42:58;5.25;;;4.15;;
54241;SDS011;40156;51.080;17.082;2022-08-01T03:45:27;4.55;;;3.92;;
54241;SDS011;40156;51.080;17.082;2022-08-01T03:47:59;5.30;;;4.32;;
54241;SDS011;40156;51.080;17.082;2022-08-01T03:50:27;9.55;;;4.95;;
54241;SDS011;40156;51.080;17.082;2022-08-01T03:52:57;5.38;;;3.85;;
54241;SDS011;40156;51.080;17.082;2022-08-01T03:55:24;6.80;;;4.30;;
54241;SDS011;40156;51.080;17.082;2022-08-01T03:58:02;5.13;;;4.43;;
54241;SDS011;40156;51.080;17.082;2022-08-01T04:00:48;8.07;;;4.32;;
54241;SDS011;40156;51.080;17.082;2022-08-01T04:03:15;4.95;;;4.10;;
54241;SDS011;40156;51.080;17.082;2022-08-01T04:05:43;6.47;;;3.83;;
54241;SDS011;40156;51.080;17.082;2022-08-01T04:08:11;7.10;;;3.83;;
54241;SDS011;40156;51.080;17.082;2022-08-01T04:10:38;6.95;;;4.35;;
54241;SDS011;40156;51.080;17.082;2022-08-01T04:13:06;4.60;;;3.97;;
54241;SDS011;40156;51.080;17.082;2022-08-01T04:15:33;5.20;;;3.78;;
54241;SDS011;40156;51.080;17.082;2022-08-01T04:18:00;5.03;;;3.95;;
54241;SDS011;40156;51.080;17.082;2022-08-01T04:20:28;5.95;;;3.97;;
54241;SDS011;40156;51.080;17.082;2022-08-01T04:25:41;5.20;;;3.92;;
54241;SDS011;40156;51.080;17.082;2022-08-01T04:28:10;5.82;;;4.20;;
54241;SDS011;40156;51.080;17.082;2022-08-01T04:30:37;5.80;;;4.10;;
54241;SDS011;40156;51.080;17.082;2022-08-01T04:33:06;6.53;;;4.60;;
54241;SDS011;40156;51.080;17.082;2022-08-01T04:35:35;5.82;;;4.22;;
54241;SDS011;40156;51.080;17.082;2022-08-01T04:38:24;4.97;;;4.00;;
54241;SDS011;40156;51.080;17.082;2022-08-01T04:40:52;6.60;;;4.32;;
54241;SDS011;40156;51.080;17.082;2022-08-01T04:43:20;6.90;;;4.07;;
54241;SDS011;40156;51.080;17.082;2022-08-01T04:48:20;5.03;;;4.13;;
54241;SDS011;40156;51.080;17.082;2022-08-01T04:50:50;6.78;;;4.57;;
54241;SDS011;40156;51.080;17.082;2022-08-01T04:53:19;5.95;;;4.20;;
54241;SDS011;40156;51.080;17.082;2022-08-01T04:55:47;6.88;;;4.55;;
54241;SDS011;40156;51.080;17.082;2022-08-01T04:58:15;8.55;;;5.40;;
54241;SDS011;40156;51.080;17.082;2022-08-01T05:00:45;5.90;;;4.57;;
54241;SDS011;40156;51.080;17.082;2022-08-01T05:03:13;4.85;;;4.35;;
54241;SDS011;40156;51.080;17.082;2022-08-01T05:05:40;7.15;;;5.10;;
54241;SDS011;40156;51.080;17.082;2022-08-01T05:08:08;8.02;;;4.82;;
54241;SDS011;40156;51.080;17.082;2022-08-01T05:10:37;6.78;;;4.30;;
54241;SDS011;40156;51.080;17.082;2022-08-01T05:13:04;8.13;;;4.57;;
54241;SDS011;40156;51.080;17.082;2022-08-01T05:15:32;4.53;;;3.80;;
54241;SDS011;40156;51.080;17.082;2022-08-01T05:17:59;6.95;;;4.30;;
54241;SDS011;40156;51.080;17.082;2022-08-01T05:20:26;5.40;;;4.65;;
54241;SDS011;40156;51.080;17.082;2022-08-01T05:22:54;4.75;;;4.22;;
54241;SDS011;40156;51.080;17.082;2022-08-01T05:25:23;8.15;;;5.07;;
54241;SDS011;40156;51.080;17.082;2022-08-01T05:28:11;8.70;;;4.82;;
54241;SDS011;40156;51.080;17.082;2022-08-01T05:30:45;6.72;;;4.63;;
54241;SDS011;40156;51.080;17.082;2022-08-01T05:33:12;8.93;;;4.55;;
54241;SDS011;40156;51.080;17.082;2022-08-01T05:35:40;7.15;;;5.30;;
54241;SDS011;40156;51.080;17.082;2022-08-01T05:38:15;6.32;;;5.07;;
54241;SDS011;40156;51.080;17.082;2022-08-01T05:40:43;9.10;;;5.07;;
54241;SDS011;40156;51.080;17.082;2022-08-01T05:43:10;7.97;;;4.90;;
54241;SDS011;40156;51.080;17.082;2022-08-01T05:45:38;7.57;;;5.32;;
54241;SDS011;40156;51.080;17.082;2022-08-01T05:48:05;6.15;;;5.07;;
54241;SDS011;40156;51.080;17.082;2022-08-01T05:50:32;5.25;;;4.60;;
54241;SDS011;40156;51.080;17.082;2022-08-01T05:53:00;7.47;;;5.20;;
54241;SDS011;40156;51.080;17.082;2022-08-01T05:55:30;8.50;;;5.82;;
54241;SDS011;40156;51.080;17.082;2022-08-01T05:57:57;5.93;;;5.28;;
54241;SDS011;40156;51.080;17.082;2022-08-01T06:00:25;8.75;;;5.13;;
54241;SDS011;40156;51.080;17.082;2022-08-01T06:06:06;8.25;;;5.78;;
54241;SDS011;40156;51.080;17.082;2022-08-01T06:08:33;6.72;;;5.55;;
54241;SDS011;40156;51.080;17.082;2022-08-01T06:11:00;8.90;;;6.05;;
54241;SDS011;40156;51.080;17.082;2022-08-01T06:13:29;7.07;;;5.50;;
54241;SDS011;40156;51.080;17.082;2022-08-01T06:15:57;10.82;;;6.03;;
54241;SDS011;40156;51.080;17.082;2022-08-01T06:18:24;6.75;;;5.18;;
54241;SDS011;40156;51.080;17.082;2022-08-01T06:20:52;7.30;;;5.50;;
54241;SDS011;40156;51.080;17.082;2022-08-01T06:23:20;7.90;;;5.75;;
54241;SDS011;40156;51.080;17.082;2022-08-01T06:25:59;8.32;;;5.80;;
54241;SDS011;40156;51.080;17.082;2022-08-01T06:28:26;8.95;;;5.28;;
54241;SDS011;40156;51.080;17.082;2022-08-01T06:31:09;9.52;;;5.82;;
54241;SDS011;40156;51.080;17.082;2022-08-01T06:33:37;6.80;;;5.30;;
54241;SDS011;40156;51.080;17.082;2022-08-01T06:36:04;5.78;;;5.10;;
54241;SDS011;40156;51.080;17.082;2022-08-01T06:38:31;8.73;;;5.30;;
54241;SDS011;40156;51.080;17.082;2022-08-01T06:40:59;6.93;;;4.95;;
54241;SDS011;40156;51.080;17.082;2022-08-01T06:43:26;7.65;;;5.03;;
54241;SDS011;40156;51.080;17.082;2022-08-01T06:45:53;9.40;;;5.55;;
54241;SDS011;40156;51.080;17.082;2022-08-01T06:48:21;7.78;;;4.90;;
54241;SDS011;40156;51.080;17.082;2022-08-01T06:50:57;7.40;;;4.88;;
54241;SDS011;40156;51.080;17.082;2022-08-01T06:53:25;5.18;;;4.40;;
54241;SDS011;40156;51.080;17.082;2022-08-01T06:58:57;6.88;;;5.28;;
54241;SDS011;40156;51.080;17.082;2022-08-01T07:01:24;4.60;;;4.00;;
54241;SDS011;40156;51.080;17.082;2022-08-01T07:03:52;4.95;;;4.15;;
54241;SDS011;40156;51.080;17.082;2022-08-01T07:06:27;7.32;;;4.13;;
54241;SDS011;40156;51.080;17.082;2022-08-01T07:08:54;6.03;;;3.70;;
54241;SDS011;40156;51.080;17.082;2022-08-01T07:11:23;6.70;;;3.40;;
54241;SDS011;40156;51.080;17.082;2022-08-01T07:13:50;5.15;;;3.38;;
54241;SDS011;40156;51.080;17.082;2022-08-01T07:19:22;5.00;;;3.80;;
54241;SDS011;40156;51.080;17.082;2022-08-01T07:24:53;3.72;;;2.67;;
54241;SDS011;40156;51.080;17.082;2022-08-01T07:27:21;5.90;;;3.05;;
54241;SDS011;40156;51.080;17.082;2022-08-01T07:29:51;3.58;;;3.08;;
54241;SDS011;40156;51.080;17.082;2022-08-01T07:32:20;4.20;;;2.50;;
54241;SDS011;40156;51.080;17.082;2022-08-01T07:34:47;4.07;;;2.90;;
54241;SDS011;40156;51.080;17.082;2022-08-01T07:37:14;3.17;;;2.88;;
54241;SDS011;40156;51.080;17.082;2022-08-01T07:39:42;6.45;;;2.72;;
54241;SDS011;40156;51.080;17.082;2022-08-01T07:42:25;4.75;;;2.90;;
54241;SDS011;40156;51.080;17.082;2022-08-01T07:44:53;3.22;;;2.92;;
54241;SDS011;40156;51.080;17.082;2022-08-01T07:47:26;3.75;;;3.13;;
54241;SDS011;40156;51.080;17.082;2022-08-01T07:50:00;3.20;;;2.70;;
54241;SDS011;40156;51.080;17.082;2022-08-01T07:52:27;2.72;;;2.53;;
54241;SDS011;40156;51.080;17.082;2022-08-01T07:54:55;4.85;;;3.20;;
54241;SDS011;40156;51.080;17.082;2022-08-01T07:57:23;3.03;;;2.70;;
54241;SDS011;40156;51.080;17.082;2022-08-01T07:59:51;6.43;;;3.15;;
54241;SDS011;40156;51.080;17.082;2022-08-01T08:02:18;3.17;;;2.88;;
54241;SDS011;40156;51.080;17.082;2022-08-01T08:04:46;6.35;;;2.97;;
54241;SDS011;40156;51.080;17.082;2022-08-01T08:14:03;5.75;;;2.78;;
54241;SDS011;40156;51.080;17.082;2022-08-01T08:16:30;8.27;;;2.88;;
54241;SDS011;40156;51.080;17.082;2022-08-01T08:18:57;4.07;;;2.80;;
54241;SDS011;40156;51.080;17.082;2022-08-01T08:21:25;5.60;;;3.00;;
54241;SDS011;40156;51.080;17.082;2022-08-01T08:23:52;4.25;;;2.67;;
54241;SDS011;40156;51.080;17.082;2022-08-01T08:26:19;4.50;;;2.90;;
54241;SDS011;40156;51.080;17.082;2022-08-01T08:28:47;4.80;;;2.88;;
54241;SDS011;40156;51.080;17.082;2022-08-01T08:31:16;3.30;;;2.70;;
54241;SDS011;40156;51.080;17.082;2022-08-01T08:34:04;3.85;;;2.55;;
54241;SDS011;40156;51.080;17.082;2022-08-01T08:36:38;5.35;;;2.90;;
54241;SDS011;40156;51.080;17.082;2022-08-01T08:39:14;3.55;;;2.60;;
54241;SDS011;40156;51.080;17.082;2022-08-01T08:41:43;4.70;;;3.05;;
54241;SDS011;40156;51.080;17.082;2022-08-01T08:44:16;4.38;;;2.78;;
54241;SDS011;40156;51.080;17.082;2022-08-01T08:46:44;5.30;;;2.88;;
54241;SDS011;40156;51.080;17.082;2022-08-01T08:49:13;3.42;;;2.80;;
54241;SDS011;40156;51.080;17.082;2022-08-01T08:51:42;3.60;;;3.13;;
54241;SDS011;40156;51.080;17.082;2022-08-01T08:54:10;3.33;;;2.92;;
54241;SDS011;40156;51.080;17.082;2022-08-01T08:56:47;3.30;;;3.00;;
54241;SDS011;40156;51.080;17.082;2022-08-01T08:59:16;4.18;;;3.25;;
54241;SDS011;40156;51.080;17.082;2022-08-01T09:04:29;4.13;;;3.10;;
54241;SDS011;40156;51.080;17.082;2022-08-01T09:09:50;4.20;;;3.17;;
54241;SDS011;40156;51.080;17.082;2022-08-01T09:12:18;3.22;;;2.67;;
54241;SDS011;40156;51.080;17.082;2022-08-01T09:14:46;4.50;;;2.95;;
54241;SDS011;40156;51.080;17.082;2022-08-01T09:17:14;4.20;;;3.08;;
54241;SDS011;40156;51.080;17.082;2022-08-01T09:19:45;5.35;;;3.00;;
54241;SDS011;40156;51.080;17.082;2022-08-01T09:22:21;4.85;;;2.80;;
54241;SDS011;40156;51.080;17.082;2022-08-01T09:25:03;5.88;;;3.10;;
54241;SDS011;40156;51.080;17.082;2022-08-01T09:27:38;3.25;;;2.95;;
54241;SDS011;40156;51.080;17.082;2022-08-01T09:33:06;5.18;;;3.17;;
54241;SDS011;40156;51.080;17.082;2022-08-01T09:36:04;4.07;;;2.80;;
54241;SDS011;40156;51.080;17.082;2022-08-01T09:41:08;6.70;;;3.22;;
54241;SDS011;40156;51.080;17.082;2022-08-01T09:43:40;4.93;;;2.95;;
54241;SDS011;40156;51.080;17.082;2022-08-01T09:46:28;3.17;;;2.88;;
54241;SDS011;40156;51.080;17.082;2022-08-01T09:48:59;4.95;;;2.85;;
54241;SDS011;40156;51.080;17.082;2022-08-01T09:51:40;2.95;;;2.53;;
54241;SDS011;40156;51.080;17.082;2022-08-01T09:54:27;4.55;;;2.95;;
54241;SDS011;40156;51.080;17.082;2022-08-01T09:57:19;4.38;;;2.83;;
54241;SDS011;40156;51.080;17.082;2022-08-01T09:59:46;3.28;;;2.97;;
54241;SDS011;40156;51.080;17.082;2022-08-01T10:02:29;3.00;;;2.70;;
54241;SDS011;40156;51.080;17.082;2022-08-01T10:04:56;4.00;;;3.00;;
54241;SDS011;40156;51.080;17.082;2022-08-01T10:07:30;3.28;;;2.80;;
54241;SDS011;40156;51.080;17.082;2022-08-01T10:10:11;7.07;;;2.63;;
54241;SDS011;40156;51.080;17.082;2022-08-01T10:15:19;2.95;;;2.60;;
54241;SDS011;40156;51.080;17.082;2022-08-01T10:17:52;3.72;;;2.65;;
54241;SDS011;40156;51.080;17.082;2022-08-01T10:20:24;3.67;;;2.78;;
54241;SDS011;40156;51.080;17.082;2022-08-01T10:23:02;4.57;;;2.92;;
54241;SDS011;40156;51.080;17.082;2022-08-01T10:25:44;2.58;;;2.38;;
54241;SDS011;40156;51.080;17.082;2022-08-01T10:30:41;2.90;;;2.20;;
54241;SDS011;40156;51.080;17.082;2022-08-01T10:36:12;3.15;;;2.22;;
54241;SDS011;40156;51.080;17.082;2022-08-01T10:38:39;3.85;;;2.40;;
54241;SDS011;40156;51.080;17.082;2022-08-01T10:41:07;3.67;;;2.30;;
54241;SDS011;40156;51.080;17.082;2022-08-01T10:43:35;4.47;;;2.25;;
54241;SDS011;40156;51.080;17.082;2022-08-01T10:46:03;4.00;;;2.47;;
54241;SDS011;40156;51.080;17.082;2022-08-01T10:48:35;2.90;;;2.47;;
54241;SDS011;40156;51.080;17.082;2022-08-01T10:51:06;5.45;;;2.40;;
54241;SDS011;40156;51.080;17.082;2022-08-01T10:53:45;6.18;;;2.60;;
54241;SDS011;40156;51.080;17.082;2022-08-01T10:56:13;2.70;;;2.50;;
54241;SDS011;40156;51.080;17.082;2022-08-01T10:58:43;3.10;;;2.80;;
54241;SDS011;40156;51.080;17.082;2022-08-01T11:01:17;3.20;;;2.72;;
54241;SDS011;40156;51.080;17.082;2022-08-01T11:09:00;6.10;;;2.83;;
54241;SDS011;40156;51.080;17.082;2022-08-01T11:11:31;4.43;;;2.85;;
54241;SDS011;40156;51.080;17.082;2022-08-01T11:14:04;4.32;;;3.00;;
54241;SDS011;40156;51.080;17.082;2022-08-01T11:16:48;5.57;;;2.80;;
54241;SDS011;40156;51.080;17.082;2022-08-01T11:19:16;4.15;;;2.88;;
54241;SDS011;40156;51.080;17.082;2022-08-01T11:27:22;3.85;;;2.67;;
54241;SDS011;40156;51.080;17.082;2022-08-01T11:32:53;5.32;;;3.30;;
54241;SDS011;40156;51.080;17.082;2022-08-01T11:39:13;4.72;;;3.15;;
54241;SDS011;40156;51.080;17.082;2022-08-01T11:41:46;3.75;;;2.78;;
54241;SDS011;40156;51.080;17.082;2022-08-01T11:44:22;3.75;;;3.42;;
54241;SDS011;40156;51.080;17.082;2022-08-01T11:46:55;4.00;;;3.08;;
54241;SDS011;40156;51.080;17.082;2022-08-01T11:54:47;4.30;;;3.00;;
54241;SDS011;40156;51.080;17.082;2022-08-01T12:00:17;3.03;;;2.72;;
54241;SDS011;40156;51.080;17.082;2022-08-01T12:03:00;3.50;;;2.85;;
54241;SDS011;40156;51.080;17.082;2022-08-01T12:05:31;4.45;;;3.08;;
54241;SDS011;40156;51.080;17.082;2022-08-01T12:08:00;3.45;;;2.90;;
54241;SDS011;40156;51.080;17.082;2022-08-01T12:10:29;5.05;;;2.90;;
54241;SDS011;40156;51.080;17.082;2022-08-01T12:13:00;5.07;;;3.20;;
54241;SDS011;40156;51.080;17.082;2022-08-01T12:15:31;2.92;;;2.60;;
54241;SDS011;40156;51.080;17.082;2022-08-01T12:20:37;4.03;;;3.17;;
54241;SDS011;40156;51.080;17.082;2022-08-01T12:23:20;4.90;;;3.42;;
54241;SDS011;40156;51.080;17.082;2022-08-01T12:26:03;2.90;;;2.70;;
54241;SDS011;40156;51.080;17.082;2022-08-01T12:28:38;2.85;;;2.65;;
54241;SDS011;40156;51.080;17.082;2022-08-01T12:31:05;3.67;;;2.30;;
54241;SDS011;40156;51.080;17.082;2022-08-01T12:33:33;3.35;;;2.40;;
54241;SDS011;40156;51.080;17.082;2022-08-01T12:36:01;3.90;;;2.67;;
54241;SDS011;40156;51.080;17.082;2022-08-01T12:38:28;3.85;;;2.70;;
54241;SDS011;40156;51.080;17.082;2022-08-01T12:43:55;2.83;;;2.60;;
54241;SDS011;40156;51.080;17.082;2022-08-01T12:46:23;5.30;;;3.00;;
54241;SDS011;40156;51.080;17.082;2022-08-01T12:48:51;2.60;;;2.40;;
54241;SDS011;40156;51.080;17.082;2022-08-01T12:51:18;2.85;;;2.58;;
54241;SDS011;40156;51.080;17.082;2022-08-01T12:53:46;2.65;;;2.45;;
54241;SDS011;40156;51.080;17.082;2022-08-01T12:56:13;2.78;;;2.50;;
54241;SDS011;40156;51.080;17.082;2022-08-01T12:58:48;3.00;;;2.70;;
54241;SDS011;40156;51.080;17.082;2022-08-01T13:01:15;7.90;;;2.70;;
54241;SDS011;40156;51.080;17.082;2022-08-01T13:04:03;4.07;;;2.40;;
54241;SDS011;40156;51.080;17.082;2022-08-01T13:06:33;3.55;;;2.80;;
54241;SDS011;40156;51.080;17.082;2022-08-01T13:09:10;4.50;;;2.63;;
54241;SDS011;40156;51.080;17.082;2022-08-01T13:11:40;4.85;;;2.40;;
54241;SDS011;40156;51.080;17.082;2022-08-01T13:14:28;2.92;;;2.63;;
54241;SDS011;40156;51.080;17.082;2022-08-01T13:16:56;3.67;;;2.70;;
54241;SDS011;40156;51.080;17.082;2022-08-01T13:19:41;5.50;;;2.75;;
54241;SDS011;40156;51.080;17.082;2022-08-01T13:22:08;3.78;;;2.90;;
54241;SDS011;40156;51.080;17.082;2022-08-01T13:24:36;3.30;;;3.00;;
54241;SDS011;40156;51.080;17.082;2022-08-01T13:27:04;6.82;;;2.60;;
54241;SDS011;40156;51.080;17.082;2022-08-01T13:35:21;6.38;;;3.40;;
54241;SDS011;40156;51.080;17.082;2022-08-01T13:37:48;7.18;;;3.40;;
54241;SDS011;40156;51.080;17.082;2022-08-01T13:40:23;4.32;;;3.17;;
54241;SDS011;40156;51.080;17.082;2022-08-01T13:42:53;3.53;;;3.22;;
54241;SDS011;40156;51.080;17.082;2022-08-01T13:45:21;3.80;;;3.33;;
54241;SDS011;40156;51.080;17.082;2022-08-01T13:47:49;5.63;;;3.30;;
54241;SDS011;40156;51.080;17.082;2022-08-01T13:50:39;3.53;;;3.22;;
54241;SDS011;40156;51.080;17.082;2022-08-01T13:53:09;3.53;;;3.22;;
54241;SDS011;40156;51.080;17.082;2022-08-01T13:55:39;3.42;;;3.13;;
54241;SDS011;40156;51.080;17.082;2022-08-01T13:58:09;6.75;;;3.10;;
54241;SDS011;40156;51.080;17.082;2022-08-01T14:00:36;3.60;;;2.80;;
54241;SDS011;40156;51.080;17.082;2022-08-01T14:03:15;3.08;;;2.70;;
54241;SDS011;40156;51.080;17.082;2022-08-01T14:05:43;2.58;;;2.38;;
54241;SDS011;40156;51.080;17.082;2022-08-01T14:08:10;1.92;;;1.80;;
54241;SDS011;40156;51.080;17.082;2022-08-01T14:10:40;2.40;;;2.20;;
54241;SDS011;40156;51.080;17.082;2022-08-01T14:13:09;2.55;;;2.35;;
54241;SDS011;40156;51.080;17.082;2022-08-01T14:15:37;2.33;;;2.10;;
54241;SDS011;40156;51.080;17.082;2022-08-01T14:18:07;2.38;;;2.17;;
54241;SDS011;40156;51.080;17.082;2022-08-01T14:23:08;2.65;;;2.05;;
54241;SDS011;40156;51.080;17.082;2022-08-01T14:25:37;4.07;;;2.00;;
54241;SDS011;40156;51.080;17.082;2022-08-01T14:28:24;3.63;;;2.50;;
54241;SDS011;40156;51.080;17.082;2022-08-01T14:30:52;3.55;;;2.92;;
54241;SDS011;40156;51.080;17.082;2022-08-01T14:33:19;2.60;;;2.40;;
54241;SDS011;40156;51.080;17.082;2022-08-01T14:35:46;6.97;;;2.50;;
54241;SDS011;40156;51.080;17.082;2022-08-01T14:38:34;2.33;;;2.13;;
54241;SDS011;40156;51.080;17.082;2022-08-01T14:41:01;2.42;;;2.20;;
54241;SDS011;40156;51.080;17.082;2022-08-01T14:43:29;4.20;;;2.30;;
54241;SDS011;40156;51.080;17.082;2022-08-01T14:46:02;2.97;;;2.20;;
54241;SDS011;40156;51.080;17.082;2022-08-01T14:48:30;3.25;;;2.42;;
54241;SDS011;40156;51.080;17.082;2022-08-01T14:50:59;2.35;;;2.15;;
54241;SDS011;40156;51.080;17.082;2022-08-01T14:53:26;2.13;;;1.92;;
54241;SDS011;40156;51.080;17.082;2022-08-01T14:55:54;3.05;;;2.42;;
54241;SDS011;40156;51.080;17.082;2022-08-01T14:58:21;2.22;;;2.03;;
54241;SDS011;40156;51.080;17.082;2022-08-01T15:00:49;2.15;;;1.98;;
54241;SDS011;40156;51.080;17.082;2022-08-01T15:03:21;1.80;;;1.70;;
54241;SDS011;40156;51.080;17.082;2022-08-01T15:05:49;4.47;;;1.92;;
54241;SDS011;40156;51.080;17.082;2022-08-01T15:08:16;3.10;;;1.70;;
54241;SDS011;40156;51.080;17.082;2022-08-01T15:10:56;1.48;;;1.38;;
54241;SDS011;40156;51.080;17.082;2022-08-01T15:13:23;1.88;;;1.65;;
54241;SDS011;40156;51.080;17.082;2022-08-01T15:16:03;2.35;;;1.60;;
54241;SDS011;40156;51.080;17.082;2022-08-01T15:18:30;1.70;;;1.60;;
54241;SDS011;40156;51.080;17.082;2022-08-01T15:21:02;2.08;;;1.88;;
54241;SDS011;40156;51.080;17.082;2022-08-01T15:26:34;3.17;;;1.83;;
54241;SDS011;40156;51.080;17.082;2022-08-01T15:29:02;2.63;;;1.65;;
54241;SDS011;40156;51.080;17.082;2022-08-01T15:31:29;2.40;;;1.85;;
54241;SDS011;40156;51.080;17.082;2022-08-01T15:33:57;1.67;;;1.58;;
54241;SDS011;40156;51.080;17.082;2022-08-01T15:36:41;1.60;;;1.50;;
54241;SDS011;40156;51.080;17.082;2022-08-01T15:39:10;1.67;;;1.50;;
54241;SDS011;40156;51.080;17.082;2022-08-01T15:41:37;3.35;;;1.60;;
54241;SDS011;40156;51.080;17.082;2022-08-01T15:44:04;1.60;;;1.50;;
54241;SDS011;40156;51.080;17.082;2022-08-01T15:46:32;2.13;;;1.45;;
54241;SDS011;40156;51.080;17.082;2022-08-01T15:49:03;3.65;;;1.80;;
54241;SDS011;40156;51.080;17.082;2022-08-01T15:51:33;8.10;;;2.65;;
54241;SDS011;40156;51.080;17.082;2022-08-01T15:54:00;3.25;;;1.67;;
54241;SDS011;40156;51.080;17.082;2022-08-01T15:56:28;2.92;;;1.63;;
54241;SDS011;40156;51.080;17.082;2022-08-01T15:58:56;3.97;;;1.60;;
54241;SDS011;40156;51.080;17.082;2022-08-01T16:01:29;2.08;;;1.30;;
54241;SDS011;40156;51.080;17.082;2022-08-01T16:03:57;1.50;;;1.40;;
54241;SDS011;40156;51.080;17.082;2022-08-01T16:06:27;1.27;;;1.17;;
54241;SDS011;40156;51.080;17.082;2022-08-01T16:08:54;2.30;;;1.10;;
54241;SDS011;40156;51.080;17.082;2022-08-01T16:11:22;2.03;;;0.82;;
54241;SDS011;40156;51.080;17.082;2022-08-01T16:13:50;1.25;;;0.82;;
54241;SDS011;40156;51.080;17.082;2022-08-01T16:16:18;1.80;;;1.00;;
54241;SDS011;40156;51.080;17.082;2022-08-01T16:18:46;1.52;;;0.95;;
54241;SDS011;40156;51.080;17.082;2022-08-01T16:21:20;1.20;;;0.90;;
54241;SDS011;40156;51.080;17.082;2022-08-01T16:23:47;1.50;;;0.85;;
54241;SDS011;40156;51.080;17.082;2022-08-01T16:26:22;1.88;;;0.90;;
54241;SDS011;40156;51.080;17.082;2022-08-01T16:28:54;1.73;;;0.80;;
54241;SDS011;40156;51.080;17.082;2022-08-01T16:31:29;6.35;;;0.90;;
54241;SDS011;40156;51.080;17.082;2022-08-01T16:34:17;0.80;;;0.77;;
54241;SDS011;40156;51.080;17.082;2022-08-01T16:36:47;1.25;;;0.60;;
54241;SDS011;40156;51.080;17.082;2022-08-01T16:42:41;0.50;;;0.47;;
54241;SDS011;40156;51.080;17.082;2022-08-01T16:45:09;1.15;;;0.82;;
54241;SDS011;40156;51.080;17.082;2022-08-01T16:47:40;0.65;;;0.60;;
54241;SDS011;40156;51.080;17.082;2022-08-01T16:50:08;0.50;;;0.50;;
54241;SDS011;40156;51.080;17.082;2022-08-01T16:52:35;0.80;;;0.60;;
54241;SDS011;40156;51.080;17.082;2022-08-01T16:55:17;0.88;;;0.70;;
54241;SDS011;40156;51.080;17.082;2022-08-01T16:57:44;0.73;;;0.60;;
54241;SDS011;40156;51.080;17.082;2022-08-01T17:00:12;2.38;;;0.93;;
54241;SDS011;40156;51.080;17.082;2022-08-01T17:02:48;1.67;;;0.70;;
54241;SDS011;40156;51.080;17.082;2022-08-01T17:05:18;1.00;;;0.68;;
54241;SDS011;40156;51.080;17.082;2022-08-01T17:07:46;1.40;;;0.70;;